Latest Weather Observations for Banana Bank

IDQ60801

Issued at 11:32 pm EST Sunday 25 September 2016 (issued every 30 minutes, with the page automatically refreshed every 10 minutes)

About weather observations | Map of weather stations | Latest weather observations for QLD | Other Formats
Station Details ID: 040925 Name: BANANA BANK NORTH BEACON Lat: -27.53 Lon: 153.33 Height: 7.0 m
Data from the previous 72 hours. | See also: Recent months for locations in Queensland
Date/Time
EST
Temp
°C
App
Temp
°C
Dew
Point
°C
Rel
Hum
%
Delta-T
°C
Wind Press
QNH
hPa
Press
MSL
hPa
Rain since
9am
mm
Dir  Spd
km/h
Gust
km/h
Spd
kts
Gust
kts
25/11:30pm - - - - - SW 19 22 10 12 - - -
25/11:00pm - - - - - WSW 13 19 7 10 - - -
25/10:30pm - - - - - WSW 11 15 6 8 - - -
25/10:00pm - - - - - W 11 17 6 9 - - -
25/09:30pm - - - - - W 15 17 8 9 - - -
25/09:00pm - - - - - W 19 20 10 11 - - -
25/08:30pm - - - - - W 15 20 8 11 - - -
25/08:00pm - - - - - W 15 19 8 10 - - -
25/07:30pm - - - - - W 20 28 11 15 - - -
25/07:00pm - - - - - W 24 33 13 18 - - -
25/06:30pm - - - - - W 28 37 15 20 - - -
25/06:00pm - - - - - W 26 33 14 18 - - -
25/05:30pm - - - - - W 28 41 15 22 - - -
25/05:00pm - - - - - W 24 28 13 15 - - -
25/04:30pm - - - - - WSW 20 35 11 19 - - -
25/04:00pm - - - - - W 24 32 13 17 - - -
25/03:30pm - - - - - W 26 35 14 19 - - -
25/03:00pm - - - - - WSW 11 17 6 9 - - -
25/02:30pm - - - - - WSW 20 28 11 15 - - -
25/02:00pm - - - - - N 19 26 10 14 - - -
25/01:30pm - - - - - N 15 24 8 13 - - -
25/01:00pm - - - - - N 17 20 9 11 - - -
25/12:30pm - - - - - N 20 24 11 13 - - -
25/12:00pm - - - - - N 19 20 10 11 - - -
25/11:30am - - - - - N 15 19 8 10 - - -
25/11:00am - - - - - N 15 17 8 9 - - -
25/10:30am - - - - - NNW 13 17 7 9 - - -
25/10:00am - - - - - NNW 7 9 4 5 - - -
25/09:30am - - - - - NNW 6 7 3 4 - - -
25/09:00am - - - - - SW 7 11 4 6 - - -
25/08:30am - - - - - WNW 6 9 3 5 - - -
25/08:00am - - - - - W 9 13 5 7 - - -
25/07:30am - - - - - WSW 6 11 3 6 - - -
25/07:00am - - - - - SW 7 11 4 6 - - -
25/06:30am - - - - - SW 11 15 6 8 - - -
25/06:00am - - - - - SW 15 19 8 10 - - -
25/05:30am - - - - - WSW 9 15 5 8 - - -
25/05:00am - - - - - WSW 11 13 6 7 - - -
25/04:30am - - - - - W 7 9 4 5 - - -
25/04:00am - - - - - SSE 2 4 1 2 - - -
25/03:30am - - - - - SSW 7 9 4 5 - - -
25/03:00am - - - - - S 6 7 3 4 - - -
25/02:30am - - - - - S 9 9 5 5 - - -
25/02:00am - - - - - SSW 11 13 6 7 - - -
25/01:30am - - - - - SW 11 13 6 7 - - -
25/01:00am - - - - - ESE 4 7 2 4 - - -
25/12:30am - - - - - NE 4 4 2 2 - - -
25/12:00am - - - - - NE 6 6 3 3 - - -
 
Date/Time
EST
Temp
°C
App
Temp
°C
Dew
Point
°C
Rel
Hum
%
Delta-T
°C
Wind Press
QNH
hPa
Press
MSL
hPa
Rain since
9am
mm
Dir  Spd
km/h
Gust
km/h
Spd
kts
Gust
kts
24/11:30pm - - - - - ENE 6 7 3 4 - - -
24/11:00pm - - - - - N 7 9 4 5 - - -
24/10:30pm - - - - - N 9 11 5 6 - - -
24/10:00pm - - - - - N 11 13 6 7 - - -
24/09:30pm - - - - - NNE 9 11 5 6 - - -
24/09:00pm - - - - - NE 7 9 4 5 - - -
24/08:30pm - - - - - NE 7 7 4 4 - - -
24/08:00pm - - - - - NNE 7 9 4 5 - - -
24/07:30pm - - - - - N 6 7 3 4 - - -
24/07:00pm - - - - - NNE 7 7 4 4 - - -
24/06:30pm - - - - - NNE 11 13 6 7 - - -
24/06:00pm - - - - - NE 11 15 6 8 - - -
24/05:30pm - - - - - ENE 15 17 8 9 - - -
24/05:00pm - - - - - ENE 17 19 9 10 - - -
24/04:30pm - - - - - E 17 19 9 10 - - -
24/04:00pm - - - - - ENE 11 15 6 8 - - -
24/03:30pm - - - - - NNE 13 17 7 9 - - -
24/03:00pm - - - - - N 15 17 8 9 - - -
24/02:30pm - - - - - N 15 19 8 10 - - -
24/02:00pm - - - - - NNE 13 15 7 8 - - -
24/01:30pm - - - - - NE 13 17 7 9 - - -
24/01:00pm - - - - - NNW 11 17 6 9 - - -
24/12:30pm - - - - - N 15 17 8 9 - - -
24/12:00pm - - - - - NNW 7 9 4 5 - - -
24/11:30am - - - - - NNW 7 9 4 5 - - -
24/11:00am - - - - - WNW 4 6 2 3 - - -
24/10:30am - - - - - ESE 6 6 3 3 - - -
24/10:00am - - - - - SE 4 6 2 3 - - -
24/09:30am - - - - - CALM 0 0 0 0 - - -
24/09:00am - - - - - CALM 0 0 0 0 - - -
24/08:30am - - - - - CALM 0 0 0 0 - - -
24/08:00am - - - - - S 2 4 1 2 - - -
24/07:30am - - - - - SW 7 9 4 5 - - -
24/07:00am - - - - - WSW 7 11 4 6 - - -
24/06:30am - - - - - WSW 6 9 3 5 - - -
24/06:00am - - - - - WSW 7 13 4 7 - - -
24/05:30am - - - - - WSW 6 7 3 4 - - -
24/05:00am - - - - - WSW 6 11 3 6 - - -
24/04:30am - - - - - SW 7 11 4 6 - - -
24/04:00am - - - - - WSW 9 13 5 7 - - -
24/03:30am - - - - - W 9 11 5 6 - - -
24/03:00am - - - - - W 9 15 5 8 - - -
24/02:30am - - - - - WSW 9 15 5 8 - - -
24/02:00am - - - - - WSW 9 15 5 8 - - -
24/01:30am - - - - - W 9 13 5 7 - - -
24/01:00am - - - - - WNW 6 7 3 4 - - -
24/12:30am - - - - - NW 6 7 3 4 - - -
24/12:00am - - - - - WSW 9 15 5 8 - - -
 
Date/Time
EST
Temp
°C
App
Temp
°C
Dew
Point
°C
Rel
Hum
%
Delta-T
°C
Wind Press
QNH
hPa
Press
MSL
hPa
Rain since
9am
mm
Dir  Spd
km/h
Gust
km/h
Spd
kts
Gust
kts
23/11:30pm - - - - - WSW 7 11 4 6 - - -
23/11:00pm - - - - - W 9 13 5 7 - - -
23/10:30pm - - - - - W 7 9 4 5 - - -
23/10:00pm - - - - - WSW 9 13 5 7 - - -
23/09:30pm - - - - - WSW 6 9 3 5 - - -
23/09:00pm - - - - - WSW 6 7 3 4 - - -
23/08:30pm - - - - - WSW 6 9 3 5 - - -
23/08:00pm - - - - - NNW 2 4 1 2 - - -
23/07:30pm - - - - - NNE 6 7 3 4 - - -
23/07:00pm - - - - - NNE 6 9 3 5 - - -
23/06:30pm - - - - - ENE 13 17 7 9 - - -
23/06:00pm - - - - - E 17 20 9 11 - - -
23/05:30pm - - - - - E 17 20 9 11 - - -
23/05:00pm - - - - - ESE 17 24 9 13 - - -
23/04:30pm - - - - - SSE 9 15 5 8 - - -
23/04:00pm - - - - - WSW 11 17 6 9 - - -
23/03:30pm - - - - - W 17 28 9 15 - - -
23/03:00pm - - - - - W 11 19 6 10 - - -
23/02:30pm - - - - - NNW 6 9 3 5 - - -
23/02:00pm - - - - - E 7 13 4 7 - - -
23/01:30pm - - - - - ENE 11 15 6 8 - - -
23/01:00pm - - - - - E 9 13 5 7 - - -
23/12:30pm - - - - - WSW 4 9 2 5 - - -
23/12:00pm - - - - - WSW 6 13 3 7 - - -
23/11:30am - - - - - WSW 9 13 5 7 - - -
23/11:00am - - - - - WSW 11 19 6 10 - - -
23/10:30am - - - - - WSW 13 22 7 12 - - -
23/10:00am - - - - - WSW 17 22 9 12 - - -
23/09:30am - - - - - WSW 13 20 7 11 - - -
23/09:00am - - - - - WSW 15 24 8 13 - - -
23/08:30am - - - - - WSW 13 20 7 11 - - -
23/08:00am - - - - - W 13 20 7 11 - - -
23/07:30am - - - - - WNW 17 20 9 11 - - -
23/07:00am - - - - - WNW 17 20 9 11 - - -
23/06:30am - - - - - WNW 17 20 9 11 - - -
23/06:00am - - - - - WNW 17 20 9 11 - - -
23/05:30am - - - - - WNW 19 22 10 12 - - -
23/05:00am - - - - - WNW 22 26 12 14 - - -
23/04:30am - - - - - WNW 30 37 16 20 - - -
23/04:00am - - - - - WNW 22 28 12 15 - - -
23/03:30am - - - - - WNW 20 26 11 14 - - -
23/03:00am - - - - - W 20 24 11 13 - - -
23/02:30am - - - - - W 20 24 11 13 - - -
23/02:00am - - - - - W 20 24 11 13 - - -
23/01:30am - - - - - W 24 28 13 15 - - -
23/01:00am - - - - - W 22 26 12 14 - - -
23/12:30am - - - - - W 22 26 12 14 - - -
23/12:00am - - - - - W 22 26 12 14 - - -

Other Formats:

Comma delimited format used in spreadsheet applications
http://www.bom.gov.au/fwo/IDQ60801/IDQ60801.94591.axf

JavaScript Object Notation format (JSON) in row-major order
http://www.bom.gov.au/fwo/IDQ60801/IDQ60801.94591.json